sensor_id;sensor_type;location;lat;lon;timestamp;pressure;altitude;pressure_sealevel;temperature;humidity
24858;BME280;12935;50.782;6.074;2023-04-01T00:00:45;97345.06;;;9.03;100.00
24858;BME280;12935;50.782;6.074;2023-04-01T00:03:11;97333.06;;;9.00;100.00
24858;BME280;12935;50.782;6.074;2023-04-01T00:05:36;97346.06;;;8.96;100.00
24858;BME280;12935;50.782;6.074;2023-04-01T00:08:01;97347.56;;;8.97;100.00
24858;BME280;12935;50.782;6.074;2023-04-01T00:10:26;97335.59;;;8.95;100.00
24858;BME280;12935;50.782;6.074;2023-04-01T00:12:52;97345.16;;;8.87;100.00
24858;BME280;12935;50.782;6.074;2023-04-01T00:15:18;97347.25;;;8.95;100.00
24858;BME280;12935;50.782;6.074;2023-04-01T00:17:43;97343.22;;;9.00;100.00
24858;BME280;12935;50.782;6.074;2023-04-01T00:20:10;97334.50;;;9.05;100.00
24858;BME280;12935;50.782;6.074;2023-04-01T00:22:35;97344.28;;;9.15;100.00
24858;BME280;12935;50.782;6.074;2023-04-01T00:25:01;97337.34;;;9.01;100.00
24858;BME280;12935;50.782;6.074;2023-04-01T00:27:26;97335.38;;;9.02;100.00
24858;BME280;12935;50.782;6.074;2023-04-01T00:29:52;97355.63;;;9.01;100.00
24858;BME280;12935;50.782;6.074;2023-04-01T00:32:17;97330.34;;;9.00;100.00
24858;BME280;12935;50.782;6.074;2023-04-01T00:34:42;97341.16;;;9.04;100.00
24858;BME280;12935;50.782;6.074;2023-04-01T00:37:09;97341.91;;;9.04;100.00
24858;BME280;12935;50.782;6.074;2023-04-01T00:39:34;97338.31;;;9.07;100.00
24858;BME280;12935;50.782;6.074;2023-04-01T00:42:00;97354.13;;;9.12;100.00
24858;BME280;12935;50.782;6.074;2023-04-01T00:44:29;97339.38;;;8.97;100.00
24858;BME280;12935;50.782;6.074;2023-04-01T00:46:55;97338.84;;;8.90;100.00
24858;BME280;12935;50.782;6.074;2023-04-01T00:49:24;97354.53;;;8.98;100.00
24858;BME280;12935;50.782;6.074;2023-04-01T00:51:53;97343.63;;;8.73;100.00
24858;BME280;12935;50.782;6.074;2023-04-01T00:54:21;97348.22;;;8.76;100.00
24858;BME280;12935;50.782;6.074;2023-04-01T00:56:54;97335.66;;;8.66;100.00
24858;BME280;12935;50.782;6.074;2023-04-01T00:59:50;97346.44;;;8.69;100.00
24858;BME280;12935;50.782;6.074;2023-04-01T01:02:18;97351.91;;;8.82;100.00
24858;BME280;12935;50.782;6.074;2023-04-01T01:04:44;97339.72;;;8.87;100.00
24858;BME280;12935;50.782;6.074;2023-04-01T01:12:40;97355.63;;;8.75;100.00
24858;BME280;12935;50.782;6.074;2023-04-01T01:15:26;97348.63;;;8.62;100.00
24858;BME280;12935;50.782;6.074;2023-04-01T01:23:50;97336.88;;;8.77;100.00
24858;BME280;12935;50.782;6.074;2023-04-01T01:26:46;97347.78;;;8.77;100.00
24858;BME280;12935;50.782;6.074;2023-04-01T01:32:21;97345.25;;;8.83;100.00
24858;BME280;12935;50.782;6.074;2023-04-01T01:38:18;97325.78;;;8.72;100.00
24858;BME280;12935;50.782;6.074;2023-04-01T01:40:49;97328.47;;;8.59;100.00
24858;BME280;12935;50.782;6.074;2023-04-01T01:43:21;97331.97;;;8.60;100.00
24858;BME280;12935;50.782;6.074;2023-04-01T01:45:52;97346.25;;;8.64;100.00
24858;BME280;12935;50.782;6.074;2023-04-01T01:48:18;97331.44;;;8.65;100.00
24858;BME280;12935;50.782;6.074;2023-04-01T01:50:45;97339.72;;;8.74;100.00
24858;BME280;12935;50.782;6.074;2023-04-01T01:53:13;97330.13;;;8.82;100.00
24858;BME280;12935;50.782;6.074;2023-04-01T01:55:41;97333.84;;;8.75;100.00
24858;BME280;12935;50.782;6.074;2023-04-01T01:58:13;97342.88;;;8.85;100.00
24858;BME280;12935;50.782;6.074;2023-04-01T02:00:42;97326.75;;;8.78;100.00
24858;BME280;12935;50.782;6.074;2023-04-01T02:03:10;97332.97;;;8.91;100.00
24858;BME280;12935;50.782;6.074;2023-04-01T02:05:36;97335.91;;;8.84;100.00
24858;BME280;12935;50.782;6.074;2023-04-01T02:08:16;97329.06;;;8.92;100.00
24858;BME280;12935;50.782;6.074;2023-04-01T02:10:49;97325.66;;;9.01;100.00
24858;BME280;12935;50.782;6.074;2023-04-01T02:13:32;97339.38;;;8.97;100.00
24858;BME280;12935;50.782;6.074;2023-04-01T02:16:02;97340.25;;;8.82;100.00
24858;BME280;12935;50.782;6.074;2023-04-01T02:18:35;97340.25;;;8.82;100.00
24858;BME280;12935;50.782;6.074;2023-04-01T02:21:02;97337.75;;;8.87;100.00
24858;BME280;12935;50.782;6.074;2023-04-01T02:23:30;97352.47;;;8.77;100.00
24858;BME280;12935;50.782;6.074;2023-04-01T02:25:57;97344.19;;;8.81;100.00
24858;BME280;12935;50.782;6.074;2023-04-01T02:28:23;97339.91;;;8.67;100.00
24858;BME280;12935;50.782;6.074;2023-04-01T02:30:50;97331.53;;;8.74;100.00
24858;BME280;12935;50.782;6.074;2023-04-01T02:33:17;97349.22;;;8.95;100.00
24858;BME280;12935;50.782;6.074;2023-04-01T02:35:43;97351.72;;;9.02;100.00
24858;BME280;12935;50.782;6.074;2023-04-01T02:38:08;97346.34;;;8.73;100.00
24858;BME280;12935;50.782;6.074;2023-04-01T02:40:46;97344.28;;;8.77;100.00
24858;BME280;12935;50.782;6.074;2023-04-01T02:43:12;97342.25;;;8.81;100.00
24858;BME280;12935;50.782;6.074;2023-04-01T02:45:37;97343.97;;;8.75;100.00
24858;BME280;12935;50.782;6.074;2023-04-01T02:48:02;97339.28;;;8.75;100.00
24858;BME280;12935;50.782;6.074;2023-04-01T02:50:28;97349.06;;;8.73;100.00
24858;BME280;12935;50.782;6.074;2023-04-01T02:52:53;97345.25;;;8.70;100.00
24858;BME280;12935;50.782;6.074;2023-04-01T02:55:18;97346.25;;;8.76;100.00
24858;BME280;12935;50.782;6.074;2023-04-01T02:57:44;97350.59;;;8.74;100.00
24858;BME280;12935;50.782;6.074;2023-04-01T03:00:09;97347.13;;;8.86;100.00
24858;BME280;12935;50.782;6.074;2023-04-01T03:02:37;97344.63;;;8.79;100.00
24858;BME280;12935;50.782;6.074;2023-04-01T03:05:03;97353.41;;;8.70;100.00
24858;BME280;12935;50.782;6.074;2023-04-01T03:07:29;97349.41;;;8.75;100.00
24858;BME280;12935;50.782;6.074;2023-04-01T03:09:54;97350.16;;;8.75;100.00
24858;BME280;12935;50.782;6.074;2023-04-01T03:12:19;97364.03;;;8.81;100.00
24858;BME280;12935;50.782;6.074;2023-04-01T03:14:45;97355.28;;;8.86;100.00
24858;BME280;12935;50.782;6.074;2023-04-01T03:17:10;97348.75;;;8.84;100.00
24858;BME280;12935;50.782;6.074;2023-04-01T03:19:35;97349.84;;;8.86;100.00
24858;BME280;12935;50.782;6.074;2023-04-01T03:22:01;97357.72;;;8.97;100.00
24858;BME280;12935;50.782;6.074;2023-04-01T03:24:26;97369.25;;;9.01;100.00
24858;BME280;12935;50.782;6.074;2023-04-01T03:26:51;97364.78;;;9.07;100.00
24858;BME280;12935;50.782;6.074;2023-04-01T03:29:16;97360.13;;;9.07;100.00
24858;BME280;12935;50.782;6.074;2023-04-01T03:31:42;97366.19;;;8.99;100.00
24858;BME280;12935;50.782;6.074;2023-04-01T03:34:07;97374.34;;;8.86;100.00
24858;BME280;12935;50.782;6.074;2023-04-01T03:36:32;97370.75;;;8.76;100.00
24858;BME280;12935;50.782;6.074;2023-04-01T03:38:58;97364.56;;;8.76;100.00
24858;BME280;12935;50.782;6.074;2023-04-01T03:41:23;97364.13;;;8.77;100.00
24858;BME280;12935;50.782;6.074;2023-04-01T03:43:48;97370.31;;;8.78;100.00
24858;BME280;12935;50.782;6.074;2023-04-01T03:46:17;97369.47;;;8.81;100.00
24858;BME280;12935;50.782;6.074;2023-04-01T03:48:43;97363.63;;;8.66;100.00
24858;BME280;12935;50.782;6.074;2023-04-01T03:51:08;97373.31;;;8.55;100.00
24858;BME280;12935;50.782;6.074;2023-04-01T03:53:33;97373.03;;;8.65;100.00
24858;BME280;12935;50.782;6.074;2023-04-01T03:56:03;97378.84;;;8.51;100.00
24858;BME280;12935;50.782;6.074;2023-04-01T03:58:28;97382.56;;;8.57;100.00
24858;BME280;12935;50.782;6.074;2023-04-01T04:00:54;97373.13;;;8.62;100.00
24858;BME280;12935;50.782;6.074;2023-04-01T04:03:20;97393.06;;;8.71;100.00
24858;BME280;12935;50.782;6.074;2023-04-01T04:05:48;97382.84;;;8.75;100.00
24858;BME280;12935;50.782;6.074;2023-04-01T04:08:14;97397.56;;;8.78;100.00
24858;BME280;12935;50.782;6.074;2023-04-01T04:10:40;97394.06;;;8.77;100.00
24858;BME280;12935;50.782;6.074;2023-04-01T04:13:06;97400.97;;;8.66;100.00
24858;BME280;12935;50.782;6.074;2023-04-01T04:15:31;97391.94;;;8.56;100.00
24858;BME280;12935;50.782;6.074;2023-04-01T04:17:56;97396.31;;;8.66;100.00
24858;BME280;12935;50.782;6.074;2023-04-01T04:20:22;97391.16;;;8.56;100.00
24858;BME280;12935;50.782;6.074;2023-04-01T04:22:47;97390.78;;;8.70;100.00
24858;BME280;12935;50.782;6.074;2023-04-01T04:25:12;97401.09;;;8.62;100.00
24858;BME280;12935;50.782;6.074;2023-04-01T04:27:38;97398.41;;;8.75;100.00
24858;BME280;12935;50.782;6.074;2023-04-01T04:30:05;97399.84;;;8.79;100.00
24858;BME280;12935;50.782;6.074;2023-04-01T04:32:30;97395.31;;;8.60;100.00
24858;BME280;12935;50.782;6.074;2023-04-01T04:34:56;97402.50;;;8.67;100.00
24858;BME280;12935;50.782;6.074;2023-04-01T04:37:21;97399.47;;;8.65;100.00
24858;BME280;12935;50.782;6.074;2023-04-01T04:39:46;97410.94;;;8.72;100.00
24858;BME280;12935;50.782;6.074;2023-04-01T04:42:12;97399.50;;;8.77;100.00
24858;BME280;12935;50.782;6.074;2023-04-01T04:44:37;97407.59;;;8.81;100.00
24858;BME280;12935;50.782;6.074;2023-04-01T04:47:02;97415.09;;;8.77;100.00
24858;BME280;12935;50.782;6.074;2023-04-01T04:49:27;97422.75;;;8.66;100.00
24858;BME280;12935;50.782;6.074;2023-04-01T04:51:53;97418.28;;;8.59;100.00
24858;BME280;12935;50.782;6.074;2023-04-01T04:54:18;97413.88;;;8.65;100.00
24858;BME280;12935;50.782;6.074;2023-04-01T04:56:43;97418.66;;;8.74;100.00
24858;BME280;12935;50.782;6.074;2023-04-01T04:59:09;97429.66;;;8.70;100.00
24858;BME280;12935;50.782;6.074;2023-04-01T05:01:34;97434.88;;;8.65;100.00
24858;BME280;12935;50.782;6.074;2023-04-01T05:03:59;97436.19;;;8.73;100.00
24858;BME280;12935;50.782;6.074;2023-04-01T05:06:25;97427.84;;;8.80;100.00
24858;BME280;12935;50.782;6.074;2023-04-01T05:08:51;97441.50;;;8.64;100.00
24858;BME280;12935;50.782;6.074;2023-04-01T05:11:18;97439.78;;;8.70;100.00
24858;BME280;12935;50.782;6.074;2023-04-01T05:13:44;97435.06;;;8.58;100.00
24858;BME280;12935;50.782;6.074;2023-04-01T05:16:12;97450.50;;;8.48;100.00
24858;BME280;12935;50.782;6.074;2023-04-01T05:18:38;97437.81;;;8.41;100.00
24858;BME280;12935;50.782;6.074;2023-04-01T05:21:04;97451.94;;;8.36;100.00
24858;BME280;12935;50.782;6.074;2023-04-01T05:23:31;97444.72;;;8.46;100.00
24858;BME280;12935;50.782;6.074;2023-04-01T05:25:57;97451.09;;;8.39;100.00
24858;BME280;12935;50.782;6.074;2023-04-01T05:28:22;97452.66;;;8.53;100.00
24858;BME280;12935;50.782;6.074;2023-04-01T05:30:47;97453.69;;;8.59;100.00
24858;BME280;12935;50.782;6.074;2023-04-01T05:33:13;97460.19;;;8.49;100.00
24858;BME280;12935;50.782;6.074;2023-04-01T05:35:39;97461.88;;;8.43;100.00
24858;BME280;12935;50.782;6.074;2023-04-01T05:38:05;97454.66;;;8.36;100.00
24858;BME280;12935;50.782;6.074;2023-04-01T05:40:31;97464.34;;;8.37;100.00
24858;BME280;12935;50.782;6.074;2023-04-01T05:42:57;97463.94;;;8.39;100.00
24858;BME280;12935;50.782;6.074;2023-04-01T05:45:23;97475.25;;;8.37;100.00
24858;BME280;12935;50.782;6.074;2023-04-01T05:47:48;97470.56;;;8.38;100.00
24858;BME280;12935;50.782;6.074;2023-04-01T05:50:14;97477.97;;;8.37;100.00
24858;BME280;12935;50.782;6.074;2023-04-01T05:52:40;97472.81;;;8.56;100.00
24858;BME280;12935;50.782;6.074;2023-04-01T05:55:05;97474.38;;;8.40;100.00
24858;BME280;12935;50.782;6.074;2023-04-01T05:57:31;97481.09;;;8.36;100.00
24858;BME280;12935;50.782;6.074;2023-04-01T05:59:56;97479.16;;;8.36;100.00
24858;BME280;12935;50.782;6.074;2023-04-01T06:02:22;97481.28;;;8.45;100.00
24858;BME280;12935;50.782;6.074;2023-04-01T06:04:47;97481.97;;;8.33;100.00
24858;BME280;12935;50.782;6.074;2023-04-01T06:07:14;97490.03;;;8.36;100.00
24858;BME280;12935;50.782;6.074;2023-04-01T06:09:41;97491.56;;;8.37;100.00
24858;BME280;12935;50.782;6.074;2023-04-01T06:17:22;97498.63;;;8.35;100.00
24858;BME280;12935;50.782;6.074;2023-04-01T06:25:38;97506.19;;;8.43;100.00
24858;BME280;12935;50.782;6.074;2023-04-01T06:31:20;97510.59;;;8.54;100.00
24858;BME280;12935;50.782;6.074;2023-04-01T06:51:21;97524.78;;;8.61;100.00
24858;BME280;12935;50.782;6.074;2023-04-01T06:53:56;97532.53;;;8.63;100.00
24858;BME280;12935;50.782;6.074;2023-04-01T06:56:26;97528.47;;;8.84;100.00
24858;BME280;12935;50.782;6.074;2023-04-01T06:58:58;97529.88;;;8.75;100.00
24858;BME280;12935;50.782;6.074;2023-04-01T07:01:31;97536.78;;;8.64;100.00
24858;BME280;12935;50.782;6.074;2023-04-01T07:04:24;97529.38;;;8.64;100.00
24858;BME280;12935;50.782;6.074;2023-04-01T07:07:00;97535.31;;;8.75;100.00
24858;BME280;12935;50.782;6.074;2023-04-01T07:09:41;97540.25;;;8.81;100.00
24858;BME280;12935;50.782;6.074;2023-04-01T07:12:21;97544.53;;;8.65;100.00
24858;BME280;12935;50.782;6.074;2023-04-01T07:14:50;97538.94;;;8.85;100.00
24858;BME280;12935;50.782;6.074;2023-04-01T07:17:23;97550.25;;;8.84;100.00
24858;BME280;12935;50.782;6.074;2023-04-01T07:19:59;97546.13;;;8.79;100.00
24858;BME280;12935;50.782;6.074;2023-04-01T07:22:31;97548.72;;;8.83;100.00
24858;BME280;12935;50.782;6.074;2023-04-01T07:25:07;97565.09;;;8.66;100.00
24858;BME280;12935;50.782;6.074;2023-04-01T07:27:36;97559.81;;;8.75;100.00
24858;BME280;12935;50.782;6.074;2023-04-01T07:30:06;97575.22;;;8.66;100.00
24858;BME280;12935;50.782;6.074;2023-04-01T07:33:04;97565.34;;;8.72;100.00
24858;BME280;12935;50.782;6.074;2023-04-01T07:35:50;97585.25;;;8.69;100.00
24858;BME280;12935;50.782;6.074;2023-04-01T07:43:50;97591.88;;;8.68;100.00
24858;BME280;12935;50.782;6.074;2023-04-01T07:54:35;97592.84;;;8.61;100.00
24858;BME280;12935;50.782;6.074;2023-04-01T07:57:09;97606.09;;;8.59;100.00
24858;BME280;12935;50.782;6.074;2023-04-01T07:59:48;97605.16;;;8.66;100.00
24858;BME280;12935;50.782;6.074;2023-04-01T08:05:33;97601.25;;;8.67;100.00
24858;BME280;12935;50.782;6.074;2023-04-01T08:14:24;97634.00;;;8.63;100.00
24858;BME280;12935;50.782;6.074;2023-04-01T08:17:11;97634.78;;;8.64;100.00
24858;BME280;12935;50.782;6.074;2023-04-01T08:19:59;97626.84;;;8.69;100.00
24858;BME280;12935;50.782;6.074;2023-04-01T08:22:32;97639.53;;;8.76;100.00
24858;BME280;12935;50.782;6.074;2023-04-01T08:25:01;97642.06;;;8.67;100.00
24858;BME280;12935;50.782;6.074;2023-04-01T08:27:39;97642.19;;;8.63;100.00
24858;BME280;12935;50.782;6.074;2023-04-01T08:30:35;97651.34;;;8.69;100.00
24858;BME280;12935;50.782;6.074;2023-04-01T08:33:21;97649.16;;;8.81;100.00
24858;BME280;12935;50.782;6.074;2023-04-01T08:35:59;97656.28;;;8.91;100.00
24858;BME280;12935;50.782;6.074;2023-04-01T08:38:33;97645.66;;;8.80;100.00
24858;BME280;12935;50.782;6.074;2023-04-01T08:50:05;97671.25;;;8.83;100.00
24858;BME280;12935;50.782;6.074;2023-04-01T08:53:26;97669.41;;;8.79;100.00
24858;BME280;12935;50.782;6.074;2023-04-01T09:00:39;97689.53;;;8.82;100.00
24858;BME280;12935;50.782;6.074;2023-04-01T09:03:36;97684.28;;;8.75;100.00
24858;BME280;12935;50.782;6.074;2023-04-01T09:06:29;97686.06;;;8.82;100.00
24858;BME280;12935;50.782;6.074;2023-04-01T09:12:19;97689.38;;;8.89;100.00
24858;BME280;12935;50.782;6.074;2023-04-01T09:15:00;97696.03;;;8.88;100.00
24858;BME280;12935;50.782;6.074;2023-04-01T09:20:35;97698.75;;;8.88;100.00
24858;BME280;12935;50.782;6.074;2023-04-01T09:23:30;97705.03;;;8.85;100.00
24858;BME280;12935;50.782;6.074;2023-04-01T09:29:02;97705.31;;;8.91;100.00
24858;BME280;12935;50.782;6.074;2023-04-01T09:34:35;97715.25;;;8.97;100.00
24858;BME280;12935;50.782;6.074;2023-04-01T09:43:06;97719.00;;;9.03;100.00
24858;BME280;12935;50.782;6.074;2023-04-01T10:03:42;97746.72;;;8.82;100.00
24858;BME280;12935;50.782;6.074;2023-04-01T10:17:43;97760.13;;;9.09;100.00
24858;BME280;12935;50.782;6.074;2023-04-01T10:20:21;97754.06;;;9.01;100.00
24858;BME280;12935;50.782;6.074;2023-04-01T10:26:12;97769.72;;;9.30;100.00
24858;BME280;12935;50.782;6.074;2023-04-01T10:36:53;97772.56;;;9.10;100.00
24858;BME280;12935;50.782;6.074;2023-04-01T10:56:54;97789.34;;;9.25;100.00
24858;BME280;12935;50.782;6.074;2023-04-01T11:08:20;97795.44;;;9.45;100.00
24858;BME280;12935;50.782;6.074;2023-04-01T11:21:47;97808.66;;;9.30;100.00
24858;BME280;12935;50.782;6.074;2023-04-01T11:24:25;97804.66;;;9.35;100.00
24858;BME280;12935;50.782;6.074;2023-04-01T11:30:22;97808.84;;;9.39;100.00
24858;BME280;12935;50.782;6.074;2023-04-01T11:33:03;97812.13;;;9.14;100.00
24858;BME280;12935;50.782;6.074;2023-04-01T11:38:54;97820.06;;;9.25;100.00
24858;BME280;12935;50.782;6.074;2023-04-01T11:41:32;97816.41;;;9.32;100.00
24858;BME280;12935;50.782;6.074;2023-04-01T11:44:36;97824.50;;;9.35;100.00
24858;BME280;12935;50.782;6.074;2023-04-01T11:55:31;97838.19;;;9.48;100.00
24858;BME280;12935;50.782;6.074;2023-04-01T12:00:30;97844.16;;;9.75;100.00
24858;BME280;12935;50.782;6.074;2023-04-01T12:06:11;97847.31;;;9.74;100.00
24858;BME280;12935;50.782;6.074;2023-04-01T12:17:09;97859.50;;;9.85;100.00
24858;BME280;12935;50.782;6.074;2023-04-01T12:19:47;97857.81;;;9.75;100.00
24858;BME280;12935;50.782;6.074;2023-04-01T12:27:39;97875.03;;;9.56;100.00
24858;BME280;12935;50.782;6.074;2023-04-01T12:33:37;97872.53;;;9.62;100.00
24858;BME280;12935;50.782;6.074;2023-04-01T12:38:32;97882.44;;;9.56;100.00
24858;BME280;12935;50.782;6.074;2023-04-01T12:44:16;97890.34;;;9.66;100.00
24858;BME280;12935;50.782;6.074;2023-04-01T12:55:34;97887.69;;;9.63;100.00
24858;BME280;12935;50.782;6.074;2023-04-01T12:58:10;97899.22;;;9.70;100.00
24858;BME280;12935;50.782;6.074;2023-04-01T13:03:58;97898.03;;;9.71;100.00
24858;BME280;12935;50.782;6.074;2023-04-01T13:06:39;97901.09;;;9.73;100.00
24858;BME280;12935;50.782;6.074;2023-04-01T13:09:11;97901.00;;;9.61;100.00
24858;BME280;12935;50.782;6.074;2023-04-01T13:20:11;97915.94;;;9.72;100.00
24858;BME280;12935;50.782;6.074;2023-04-01T13:23:44;97915.94;;;9.72;100.00
24858;BME280;12935;50.782;6.074;2023-04-01T13:28:46;97920.06;;;9.93;100.00
24858;BME280;12935;50.782;6.074;2023-04-01T13:34:24;97926.06;;;10.04;100.00
24858;BME280;12935;50.782;6.074;2023-04-01T13:42:40;97929.56;;;9.89;100.00
24858;BME280;12935;50.782;6.074;2023-04-01T13:45:19;97937.31;;;9.90;100.00
24858;BME280;12935;50.782;6.074;2023-04-01T13:47:59;97937.75;;;9.89;100.00
24858;BME280;12935;50.782;6.074;2023-04-01T13:53:06;97947.97;;;9.84;100.00
24858;BME280;12935;50.782;6.074;2023-04-01T13:56:24;97943.44;;;9.94;100.00
24858;BME280;12935;50.782;6.074;2023-04-01T13:59:07;97950.44;;;10.57;100.00
24858;BME280;12935;50.782;6.074;2023-04-01T14:01:50;97955.81;;;10.89;100.00
24858;BME280;12935;50.782;6.074;2023-04-01T14:07:25;97964.13;;;10.40;100.00
24858;BME280;12935;50.782;6.074;2023-04-01T14:15:14;97960.66;;;10.07;100.00
24858;BME280;12935;50.782;6.074;2023-04-01T14:17:52;97963.50;;;9.88;100.00
24858;BME280;12935;50.782;6.074;2023-04-01T14:37:12;97981.81;;;9.71;100.00
24858;BME280;12935;50.782;6.074;2023-04-01T14:42:38;97979.06;;;9.71;100.00
24858;BME280;12935;50.782;6.074;2023-04-01T14:47:54;97994.75;;;9.67;100.00
24858;BME280;12935;50.782;6.074;2023-04-01T14:50:24;97993.38;;;9.59;100.00
24858;BME280;12935;50.782;6.074;2023-04-01T14:53:13;97996.09;;;9.59;100.00
24858;BME280;12935;50.782;6.074;2023-04-01T15:03:32;98012.69;;;9.48;100.00
24858;BME280;12935;50.782;6.074;2023-04-01T15:09:01;98012.91;;;9.37;100.00
24858;BME280;12935;50.782;6.074;2023-04-01T15:14:21;98018.66;;;9.43;100.00
24858;BME280;12935;50.782;6.074;2023-04-01T15:22:29;98028.25;;;9.67;100.00
24858;BME280;12935;50.782;6.074;2023-04-01T15:28:15;98033.84;;;9.60;100.00
24858;BME280;12935;50.782;6.074;2023-04-01T15:31:04;98040.22;;;9.54;100.00
24858;BME280;12935;50.782;6.074;2023-04-01T15:33:49;98037.91;;;9.52;100.00
24858;BME280;12935;50.782;6.074;2023-04-01T15:39:12;98039.53;;;9.49;100.00
24858;BME280;12935;50.782;6.074;2023-04-01T15:47:32;98053.50;;;9.32;100.00
24858;BME280;12935;50.782;6.074;2023-04-01T15:50:26;98039.88;;;9.32;100.00
24858;BME280;12935;50.782;6.074;2023-04-01T16:04:48;98066.47;;;9.28;100.00
24858;BME280;12935;50.782;6.074;2023-04-01T16:10:38;98088.44;;;9.17;100.00
24858;BME280;12935;50.782;6.074;2023-04-01T16:15:59;98088.03;;;9.19;100.00
24858;BME280;12935;50.782;6.074;2023-04-01T16:21:11;98091.38;;;9.06;100.00
24858;BME280;12935;50.782;6.074;2023-04-01T16:23:40;98091.84;;;9.01;100.00
24858;BME280;12935;50.782;6.074;2023-04-01T16:26:24;98081.78;;;8.98;100.00
24858;BME280;12935;50.782;6.074;2023-04-01T16:28:57;98095.66;;;9.07;100.00
24858;BME280;12935;50.782;6.074;2023-04-01T16:34:08;98098.56;;;9.17;100.00
24858;BME280;12935;50.782;6.074;2023-04-01T16:36:47;98111.44;;;9.16;100.00
24858;BME280;12935;50.782;6.074;2023-04-01T16:44:44;98118.63;;;9.06;100.00
24858;BME280;12935;50.782;6.074;2023-04-01T16:47:15;98120.63;;;9.02;100.00
24858;BME280;12935;50.782;6.074;2023-04-01T16:49:46;98126.81;;;9.06;100.00
24858;BME280;12935;50.782;6.074;2023-04-01T16:52:30;98130.41;;;9.00;100.00
24858;BME280;12935;50.782;6.074;2023-04-01T16:55:03;98132.66;;;9.05;100.00
24858;BME280;12935;50.782;6.074;2023-04-01T16:57:46;98132.25;;;9.06;100.00
24858;BME280;12935;50.782;6.074;2023-04-01T17:02:54;98146.47;;;8.94;100.00
24858;BME280;12935;50.782;6.074;2023-04-01T17:05:39;98149.56;;;8.96;100.00
24858;BME280;12935;50.782;6.074;2023-04-01T17:08:34;98145.75;;;8.90;100.00
24858;BME280;12935;50.782;6.074;2023-04-01T17:11:10;98156.66;;;8.90;100.00
24858;BME280;12935;50.782;6.074;2023-04-01T17:13:46;98153.38;;;8.99;100.00
24858;BME280;12935;50.782;6.074;2023-04-01T17:21:47;98165.13;;;8.96;100.00
24858;BME280;12935;50.782;6.074;2023-04-01T17:27:40;98173.69;;;8.71;100.00
24858;BME280;12935;50.782;6.074;2023-04-01T17:36:12;98190.63;;;8.82;100.00
24858;BME280;12935;50.782;6.074;2023-04-01T17:39:22;98185.81;;;8.66;100.00
24858;BME280;12935;50.782;6.074;2023-04-01T17:44:34;98193.13;;;8.73;100.00
24858;BME280;12935;50.782;6.074;2023-04-01T17:47:17;98193.84;;;8.77;100.00
24858;BME280;12935;50.782;6.074;2023-04-01T17:50:07;98195.03;;;8.76;100.00
24858;BME280;12935;50.782;6.074;2023-04-01T17:52:42;98205.88;;;8.79;100.00
24858;BME280;12935;50.782;6.074;2023-04-01T18:04:06;98212.47;;;8.52;100.00
24858;BME280;12935;50.782;6.074;2023-04-01T18:14:23;98220.25;;;8.53;100.00
24858;BME280;12935;50.782;6.074;2023-04-01T18:16:59;98228.78;;;8.55;100.00
24858;BME280;12935;50.782;6.074;2023-04-01T18:22:20;98237.25;;;8.61;100.00
24858;BME280;12935;50.782;6.074;2023-04-01T18:25:01;98246.69;;;8.53;100.00
24858;BME280;12935;50.782;6.074;2023-04-01T18:27:38;98234.75;;;8.47;100.00
24858;BME280;12935;50.782;6.074;2023-04-01T18:30:17;98246.84;;;8.42;100.00
24858;BME280;12935;50.782;6.074;2023-04-01T18:33:01;98245.31;;;8.41;100.00
24858;BME280;12935;50.782;6.074;2023-04-01T18:40:51;98256.44;;;8.20;100.00
24858;BME280;12935;50.782;6.074;2023-04-01T18:43:27;98253.66;;;8.23;100.00
24858;BME280;12935;50.782;6.074;2023-04-01T18:45:59;98260.19;;;8.33;100.00
24858;BME280;12935;50.782;6.074;2023-04-01T18:48:59;98261.44;;;8.25;100.00
24858;BME280;12935;50.782;6.074;2023-04-01T18:51:44;98268.38;;;8.29;100.00
24858;BME280;12935;50.782;6.074;2023-04-01T18:54:17;98260.25;;;8.26;100.00
24858;BME280;12935;50.782;6.074;2023-04-01T18:56:47;98275.84;;;8.22;100.00
24858;BME280;12935;50.782;6.074;2023-04-01T19:15:37;98291.75;;;8.23;100.00
24858;BME280;12935;50.782;6.074;2023-04-01T19:21:10;98296.94;;;8.14;100.00
24858;BME280;12935;50.782;6.074;2023-04-01T19:26:05;98309.19;;;8.29;100.00
24858;BME280;12935;50.782;6.074;2023-04-01T19:28:55;98310.06;;;8.19;100.00
24858;BME280;12935;50.782;6.074;2023-04-01T19:31:39;98303.50;;;8.17;100.00
24858;BME280;12935;50.782;6.074;2023-04-01T19:36:48;98297.34;;;8.13;100.00
24858;BME280;12935;50.782;6.074;2023-04-01T19:48:00;98312.44;;;8.17;100.00
24858;BME280;12935;50.782;6.074;2023-04-01T19:50:38;98314.31;;;8.24;100.00
24858;BME280;12935;50.782;6.074;2023-04-01T19:53:37;98320.47;;;8.28;100.00
24858;BME280;12935;50.782;6.074;2023-04-01T19:56:16;98311.13;;;8.29;100.00
24858;BME280;12935;50.782;6.074;2023-04-01T20:01:35;98320.06;;;8.33;100.00
24858;BME280;12935;50.782;6.074;2023-04-01T20:04:08;98318.91;;;8.30;100.00
24858;BME280;12935;50.782;6.074;2023-04-01T20:06:57;98331.56;;;8.48;100.00
24858;BME280;12935;50.782;6.074;2023-04-01T20:09:37;98332.50;;;8.30;100.00
24858;BME280;12935;50.782;6.074;2023-04-01T20:15:03;98338.13;;;8.50;100.00
24858;BME280;12935;50.782;6.074;2023-04-01T20:17:43;98333.38;;;8.20;100.00
24858;BME280;12935;50.782;6.074;2023-04-01T20:31:23;98356.81;;;8.10;100.00
24858;BME280;12935;50.782;6.074;2023-04-01T20:34:22;98363.28;;;8.24;100.00
24858;BME280;12935;50.782;6.074;2023-04-01T20:39:40;98363.72;;;8.19;100.00
24858;BME280;12935;50.782;6.074;2023-04-01T20:42:46;98366.13;;;8.13;100.00
24858;BME280;12935;50.782;6.074;2023-04-01T20:45:21;98369.53;;;8.21;100.00
24858;BME280;12935;50.782;6.074;2023-04-01T20:50:43;98366.94;;;8.10;100.00
24858;BME280;12935;50.782;6.074;2023-04-01T20:53:25;98377.41;;;8.12;100.00
24858;BME280;12935;50.782;6.074;2023-04-01T20:56:14;98379.31;;;8.15;100.00
24858;BME280;12935;50.782;6.074;2023-04-01T20:58:59;98380.81;;;8.19;100.00
24858;BME280;12935;50.782;6.074;2023-04-01T21:01:43;98372.72;;;8.16;100.00